createdAt,value
2023-05-19T00:01:25.115Z,100759.37
2023-05-19T00:03:54.754Z,100749.56
2023-05-19T00:06:27.289Z,100749.03
2023-05-19T00:09:06.097Z,100757.88
2023-05-19T00:11:36.344Z,100755.41
2023-05-19T00:14:04.428Z,100755.19
2023-05-19T00:16:32.382Z,100754.53
2023-05-19T00:19:00.854Z,100754.06
2023-05-19T00:21:29.516Z,100753.34
2023-05-19T00:23:56.768Z,100749.31
2023-05-19T00:26:24.952Z,100758.19
2023-05-19T00:28:54.462Z,100757.12
2023-05-19T00:31:21.851Z,100757.28
2023-05-19T00:33:49.279Z,100753.31
2023-05-19T00:36:16.803Z,100754.66
2023-05-19T00:38:44.013Z,100754.03
2023-05-19T00:41:11.933Z,100747.81
2023-05-19T00:43:39.429Z,100757.09
2023-05-19T00:46:07.596Z,100745.50
2023-05-19T00:48:35.257Z,100753.22
2023-05-19T00:51:05.292Z,100750.06
2023-05-19T00:53:34.090Z,100745.41
2023-05-19T00:56:02.449Z,100750.06
2023-05-19T00:58:32.675Z,100751.41
2023-05-19T01:01:06.968Z,100740.22
2023-05-19T01:03:36.269Z,100751.28
2023-05-19T01:06:07.943Z,100748.16
2023-05-19T01:08:39.461Z,100748.38
2023-05-19T01:11:07.337Z,100741.91
2023-05-19T01:13:35.931Z,100751.53
2023-05-19T01:16:32.308Z,100747.66
2023-05-19T01:19:21.217Z,100760.19
2023-05-19T01:21:54.084Z,100750.56
2023-05-19T01:24:53.504Z,100752.13
2023-05-19T01:27:43.347Z,100760.09
2023-05-19T01:30:17.014Z,100754.94
2023-05-19T01:32:45.723Z,100748.87
2023-05-19T01:35:14.439Z,100750.06
2023-05-19T01:37:41.706Z,100757.66
2023-05-19T01:40:11.036Z,100749.63
2023-05-19T01:42:40.108Z,100746.47
2023-05-19T01:45:11.244Z,100739.03
2023-05-19T01:47:42.998Z,100740.94
2023-05-19T01:50:11.238Z,100743.09
2023-05-19T01:52:38.887Z,100740.44
2023-05-19T01:55:06.905Z,100746.34
2023-05-19T01:57:53.834Z,100742.97
2023-05-19T02:00:35.081Z,100743.09
2023-05-19T02:03:12.035Z,100743.94
2023-05-19T02:06:07.262Z,100748.09
2023-05-19T02:09:04.333Z,100751.38
2023-05-19T02:12:07.489Z,100750.31
2023-05-19T02:14:44.109Z,100745.50
2023-05-19T02:17:13.433Z,100756.34
2023-05-19T02:19:41.206Z,100752.97
2023-05-19T02:22:08.634Z,100754.53
2023-05-19T02:24:37.719Z,100752.97
2023-05-19T02:27:05.478Z,100742.16
2023-05-19T02:29:33.036Z,100737.56
2023-05-19T02:32:01.562Z,100743.34
2023-05-19T02:34:28.920Z,100726.06
2023-05-19T02:36:57.783Z,100738.53
2023-05-19T02:39:25.034Z,100736.50
2023-05-19T02:41:52.214Z,100734.22
2023-05-19T02:44:19.855Z,100736.84
2023-05-19T02:46:47.168Z,100740.22
2023-05-19T02:49:14.952Z,100741.66
2023-05-19T02:51:42.646Z,100736.38
2023-05-19T02:54:10.093Z,100731.91
2023-05-19T02:56:37.280Z,100745.03
2023-05-19T02:59:04.832Z,100735.53
2023-05-19T03:01:32.823Z,100746.13
2023-05-19T03:04:00.289Z,100750.94
2023-05-19T03:06:28.316Z,100748.75
2023-05-19T03:08:55.669Z,100749.88
2023-05-19T03:11:23.359Z,100758.03
2023-05-19T03:13:50.819Z,100765.72
2023-05-19T03:16:18.099Z,100776.31
2023-05-19T03:18:46.027Z,100773.28
2023-05-19T03:21:13.472Z,100766.91
2023-05-19T03:23:40.645Z,100765.13
2023-05-19T03:26:07.932Z,100758.41
2023-05-19T03:28:35.597Z,100761.41
2023-05-19T03:31:03.171Z,100755.59
2023-05-19T03:33:32.616Z,100762.59
2023-05-19T03:36:00.174Z,100765.22
2023-05-19T03:38:28.597Z,100764.50
2023-05-19T03:40:56.276Z,100760.41
2023-05-19T03:43:23.762Z,100755.69
2023-05-19T03:45:51.834Z,100760.62
2023-05-19T03:48:21.454Z,100748.31
2023-05-19T03:50:50.950Z,100756.69
2023-05-19T03:53:18.467Z,100757.81
2023-05-19T03:55:46.395Z,100750.69
2023-05-19T03:58:14.699Z,100759.81
2023-05-19T04:00:42.496Z,100767.16
2023-05-19T04:03:10.190Z,100759.41
2023-05-19T04:05:37.596Z,100765.00
2023-05-19T04:08:04.976Z,100767.84
2023-05-19T04:10:32.726Z,100768.63
2023-05-19T04:13:00.151Z,100772.06
2023-05-19T04:15:27.561Z,100778.03
2023-05-19T04:17:56.324Z,100779.25
2023-05-19T04:20:23.696Z,100780.00
2023-05-19T04:22:51.133Z,100787.88
2023-05-19T04:25:20.319Z,100784.34
2023-05-19T04:27:48.941Z,100791.59
2023-05-19T04:30:22.498Z,100788.34
2023-05-19T04:32:54.041Z,100789.09
2023-05-19T04:35:21.388Z,100789.87
2023-05-19T04:37:49.201Z,100804.25
2023-05-19T04:40:17.506Z,100803.00
2023-05-19T04:42:46.189Z,100800.56
2023-05-19T04:45:14.192Z,100799.34
2023-05-19T04:47:42.509Z,100799.72
2023-05-19T04:50:11.456Z,100800.78
2023-05-19T04:52:38.589Z,100807.75
2023-05-19T04:55:06.652Z,100809.19
2023-05-19T04:57:33.922Z,100815.28
2023-05-19T05:00:01.801Z,100826.81
2023-05-19T05:02:32.301Z,100816.25
2023-05-19T05:05:01.748Z,100812.69
2023-05-19T05:07:31.593Z,100814.97
2023-05-19T05:09:59.829Z,100816.87
2023-05-19T05:12:27.763Z,100825.44
2023-05-19T05:14:55.788Z,100831.97
2023-05-19T05:17:23.204Z,100834.13
2023-05-19T05:19:50.842Z,100838.31
2023-05-19T05:22:18.773Z,100841.84
2023-05-19T05:24:46.728Z,100838.97
2023-05-19T05:27:14.627Z,100846.50
2023-05-19T05:29:42.736Z,100841.78
2023-05-19T05:32:10.407Z,100830.44
2023-05-19T05:34:39.982Z,100828.59
2023-05-19T05:37:07.510Z,100833.09
2023-05-19T05:39:35.287Z,100834.22
2023-05-19T05:42:02.669Z,100833.94
2023-05-19T05:44:30.822Z,100843.34
2023-05-19T05:46:58.549Z,100847.34
2023-05-19T05:49:26.624Z,100842.38
2023-05-19T05:52:05.556Z,100854.53
2023-05-19T05:54:34.724Z,100851.97
2023-05-19T05:57:03.477Z,100848.47
2023-05-19T05:59:30.818Z,100852.41
2023-05-19T06:01:58.286Z,100859.59
2023-05-19T06:04:26.030Z,100854.59
2023-05-19T06:06:57.106Z,100862.56
2023-05-19T06:09:25.289Z,100864.41
2023-05-19T06:11:52.854Z,100873.56
2023-05-19T06:14:20.432Z,100868.03
2023-05-19T06:16:48.452Z,100875.56
2023-05-19T06:19:16.527Z,100878.19
2023-05-19T06:21:44.628Z,100875.84
2023-05-19T06:24:12.518Z,100886.66
2023-05-19T06:26:40.168Z,100881.63
2023-05-19T06:29:07.565Z,100875.38
2023-05-19T06:31:34.837Z,100879.47
2023-05-19T06:34:03.707Z,100876.47
2023-05-19T06:36:31.489Z,100874.78
2023-05-19T06:39:01.338Z,100882.06
2023-05-19T06:41:31.315Z,100890.25
2023-05-19T06:43:58.750Z,100885.56
2023-05-19T06:46:26.045Z,100903.56
2023-05-19T06:48:53.612Z,100902.94
2023-05-19T06:51:22.485Z,100907.25
2023-05-19T06:53:50.492Z,100908.94
2023-05-19T06:56:19.084Z,100907.94
2023-05-19T06:58:46.494Z,100904.56
2023-05-19T07:01:13.732Z,100905.75
2023-05-19T07:03:42.083Z,100898.22
2023-05-19T07:06:09.501Z,100901.19
2023-05-19T07:08:37.426Z,100897.63
2023-05-19T07:11:05.373Z,100904.25
2023-05-19T07:13:33.096Z,100902.75
2023-05-19T07:16:00.400Z,100887.59
2023-05-19T07:18:31.902Z,100880.09
2023-05-19T07:21:14.921Z,100876.69
2023-05-19T07:23:42.456Z,100878.75
2023-05-19T07:26:09.651Z,100877.06
2023-05-19T07:28:37.772Z,100874.47
2023-05-19T07:31:06.923Z,100870.66
2023-05-19T07:33:34.171Z,100869.34
2023-05-19T07:36:01.454Z,100877.00
2023-05-19T07:38:31.568Z,100868.66
2023-05-19T07:40:58.932Z,100869.97
2023-05-19T07:43:26.254Z,100881.88
2023-05-19T07:45:56.396Z,100882.03
2023-05-19T07:48:25.776Z,100885.31
2023-05-19T07:50:53.337Z,100877.56
2023-05-19T07:53:22.724Z,100871.72
2023-05-19T07:55:50.314Z,100871.37
2023-05-19T07:58:17.983Z,100856.69
2023-05-19T08:00:46.334Z,100861.31
2023-05-19T08:03:17.988Z,100863.81
2023-05-19T08:05:46.088Z,100863.41
2023-05-19T08:08:16.767Z,100865.00
2023-05-19T08:10:44.277Z,100861.16
2023-05-19T08:13:11.534Z,100853.91
2023-05-19T08:15:39.461Z,100853.97
2023-05-19T08:18:06.830Z,100838.84
2023-05-19T08:20:34.618Z,100849.53
2023-05-19T08:23:02.438Z,100859.88
2023-05-19T08:25:29.618Z,100854.97
2023-05-19T08:27:56.940Z,100851.34
2023-05-19T08:30:24.536Z,100861.91
2023-05-19T08:32:51.944Z,100855.66
2023-05-19T08:35:21.870Z,100844.25
2023-05-19T08:37:49.338Z,100860.72
2023-05-19T08:40:18.435Z,100853.75
2023-05-19T08:42:46.327Z,100852.53
2023-05-19T08:45:13.967Z,100856.84
2023-05-19T08:47:46.540Z,100847.37
2023-05-19T08:50:18.204Z,100849.63
2023-05-19T08:52:53.778Z,100842.75
2023-05-19T08:55:37.317Z,100836.81
2023-05-19T08:58:05.110Z,100837.59
2023-05-19T09:00:33.385Z,100836.28
2023-05-19T09:03:17.378Z,100832.75
2023-05-19T09:09:16.168Z,100845.41
2023-05-19T09:15:17.974Z,100849.06
2023-05-19T09:17:48.227Z,100841.97
2023-05-19T09:20:17.451Z,100834.25
2023-05-19T09:22:48.300Z,100837.97
2023-05-19T09:25:36.039Z,100831.84
2023-05-19T09:28:07.720Z,100823.47
2023-05-19T09:30:47.258Z,100826.59
2023-05-19T09:33:19.972Z,100831.13
2023-05-19T09:35:48.309Z,100824.72
2023-05-19T09:38:19.646Z,100824.31
2023-05-19T09:40:50.049Z,100821.59
2023-05-19T09:43:17.976Z,100826.87
2023-05-19T09:45:45.452Z,100819.22
2023-05-19T09:48:14.795Z,100810.41
2023-05-19T09:50:45.620Z,100804.31
2023-05-19T09:53:14.414Z,100801.03
2023-05-19T09:55:42.986Z,100798.47
2023-05-19T09:58:12.582Z,100793.94
2023-05-19T10:00:40.437Z,100800.00
2023-05-19T10:03:09.305Z,100797.09
2023-05-19T10:05:36.912Z,100794.03
2023-05-19T10:08:10.613Z,100801.00
2023-05-19T10:10:39.128Z,100797.22
2023-05-19T10:13:07.172Z,100797.31
2023-05-19T10:15:40.809Z,100800.84
2023-05-19T10:18:14.246Z,100792.94
2023-05-19T10:24:13.396Z,100784.53
2023-05-19T10:26:48.249Z,100777.97
2023-05-19T10:29:19.480Z,100786.22
2023-05-19T10:31:48.206Z,100777.03
2023-05-19T10:34:50.595Z,100776.13
2023-05-19T10:37:29.619Z,100763.78
2023-05-19T10:39:57.959Z,100765.69
2023-05-19T10:43:02.333Z,100765.34
2023-05-19T10:45:31.938Z,100768.75
2023-05-19T10:47:59.873Z,100759.56
2023-05-19T10:50:27.321Z,100759.63
2023-05-19T10:52:56.313Z,100750.91
2023-05-19T10:55:47.685Z,100745.19
2023-05-19T10:58:14.941Z,100753.56
2023-05-19T11:00:42.424Z,100754.81
2023-05-19T11:03:36.283Z,100751.72
2023-05-19T11:06:25.150Z,100742.91
2023-05-19T11:08:54.870Z,100754.16
2023-05-19T11:11:23.617Z,100738.94
2023-05-19T11:13:52.974Z,100736.75
2023-05-19T11:16:30.680Z,100743.56
2023-05-19T11:19:02.090Z,100746.97
2023-05-19T11:21:46.685Z,100745.22
2023-05-19T11:24:40.148Z,100741.19
2023-05-19T11:27:33.362Z,100743.66
2023-05-19T11:30:20.214Z,100738.94
2023-05-19T11:32:48.542Z,100739.44
2023-05-19T11:35:19.270Z,100748.44
2023-05-19T11:37:48.854Z,100732.91
2023-05-19T11:40:19.671Z,100734.19
2023-05-19T11:42:47.247Z,100744.09
2023-05-19T11:45:14.472Z,100742.25
2023-05-19T11:48:00.275Z,100749.06
2023-05-19T11:50:29.130Z,100741.41
2023-05-19T11:52:57.882Z,100741.31
2023-05-19T11:55:25.473Z,100741.44
2023-05-19T11:58:04.048Z,100737.97
2023-05-19T12:00:40.402Z,100731.69
2023-05-19T12:03:09.565Z,100736.16
2023-05-19T12:05:42.794Z,100726.97
2023-05-19T12:08:12.017Z,100727.34
2023-05-19T12:10:40.479Z,100734.56
2023-05-19T12:13:12.151Z,100733.31
2023-05-19T12:15:41.351Z,100725.88
2023-05-19T12:18:08.746Z,100721.19
2023-05-19T12:20:36.601Z,100713.03
2023-05-19T12:23:04.863Z,100718.56
2023-05-19T12:25:32.870Z,100707.41
2023-05-19T12:28:04.936Z,100703.00
2023-05-19T12:30:35.997Z,100700.97
2023-05-19T12:33:03.748Z,100690.87
2023-05-19T12:35:36.297Z,100694.44
2023-05-19T12:38:05.125Z,100693.31
2023-05-19T12:40:37.737Z,100685.38
2023-05-19T12:43:06.924Z,100678.31
2023-05-19T12:45:38.352Z,100687.31
2023-05-19T12:48:11.215Z,100682.94
2023-05-19T12:50:38.694Z,100683.00
2023-05-19T12:53:09.306Z,100681.75
2023-05-19T12:55:44.104Z,100676.16
2023-05-19T12:58:12.395Z,100670.84
2023-05-19T13:00:49.902Z,100673.72
2023-05-19T13:03:19.832Z,100671.25
2023-05-19T13:05:54.023Z,100676.47
2023-05-19T13:08:26.645Z,100670.16
2023-05-19T13:10:54.427Z,100672.28
2023-05-19T13:13:23.217Z,100670.34
2023-05-19T13:15:50.467Z,100661.16
2023-05-19T13:18:24.931Z,100658.25
2023-05-19T13:20:57.638Z,100659.34
2023-05-19T13:23:25.854Z,100657.50
2023-05-19T13:25:53.464Z,100659.78
2023-05-19T13:28:20.953Z,100657.97
2023-05-19T13:30:49.707Z,100658.09
2023-05-19T13:33:20.221Z,100645.53
2023-05-19T13:35:50.223Z,100637.97
2023-05-19T13:38:17.840Z,100640.94
2023-05-19T13:40:45.763Z,100640.91
2023-05-19T13:43:13.170Z,100634.41
2023-05-19T13:45:42.903Z,100634.50
2023-05-19T13:48:11.940Z,100628.00
2023-05-19T13:50:39.269Z,100634.28
2023-05-19T13:53:06.753Z,100629.72
2023-05-19T13:55:34.048Z,100623.53
2023-05-19T13:58:01.414Z,100622.47
2023-05-19T14:00:29.056Z,100622.66
2023-05-19T14:02:56.774Z,100617.47
2023-05-19T14:05:24.116Z,100616.44
2023-05-19T14:07:51.822Z,100613.94
2023-05-19T14:10:19.394Z,100614.56
2023-05-19T14:13:14.170Z,100613.94
2023-05-19T14:15:37.934Z,100608.94
2023-05-19T14:18:06.673Z,100616.81
2023-05-19T14:20:39.193Z,100613.50
2023-05-19T14:23:10.532Z,100621.38
2023-05-19T14:25:39.407Z,100618.41
2023-05-19T14:28:06.734Z,100619.03
2023-05-19T14:30:36.308Z,100614.75
2023-05-19T14:33:04.034Z,100622.06
2023-05-19T14:35:31.304Z,100616.84
2023-05-19T14:37:58.900Z,100620.66
2023-05-19T14:40:26.658Z,100617.91
2023-05-19T14:42:55.029Z,100607.56
2023-05-19T14:45:22.230Z,100606.22
2023-05-19T14:47:49.964Z,100608.12
2023-05-19T14:50:17.258Z,100605.66
2023-05-19T14:52:44.742Z,100609.59
2023-05-19T14:55:12.266Z,100607.25
2023-05-19T14:57:39.518Z,100604.16
2023-05-19T15:00:09.327Z,100603.72
2023-05-19T15:02:36.836Z,100602.63
2023-05-19T15:05:04.644Z,100606.87
2023-05-19T15:07:32.013Z,100603.16
2023-05-19T15:09:59.856Z,100602.72
2023-05-19T15:12:29.557Z,100599.44
2023-05-19T15:14:56.922Z,100605.25
2023-05-19T15:17:24.447Z,100603.97
2023-05-19T15:19:51.850Z,100603.37
2023-05-19T15:22:19.192Z,100598.19
2023-05-19T15:24:46.860Z,100606.06
2023-05-19T15:27:14.133Z,100604.34
2023-05-19T15:29:41.356Z,100602.84
2023-05-19T15:32:09.039Z,100603.19
2023-05-19T15:34:36.540Z,100599.31
2023-05-19T15:37:04.086Z,100603.84
2023-05-19T15:39:32.392Z,100605.88
2023-05-19T15:41:59.749Z,100600.09
2023-05-19T15:44:28.939Z,100605.41
2023-05-19T15:46:57.106Z,100606.91
2023-05-19T15:49:27.570Z,100601.25
2023-05-19T15:51:54.925Z,100602.94
2023-05-19T15:54:22.564Z,100606.63
2023-05-19T15:56:49.868Z,100604.06
2023-05-19T15:59:17.308Z,100598.59
2023-05-19T16:01:45.097Z,100602.56
2023-05-19T16:04:12.775Z,100592.47
2023-05-19T16:06:40.050Z,100605.56
2023-05-19T16:09:07.270Z,100597.50
2023-05-19T16:11:34.825Z,100598.09
2023-05-19T16:14:02.006Z,100601.44
2023-05-19T16:16:37.524Z,100597.94
2023-05-19T16:19:05.202Z,100589.25
2023-05-19T16:21:43.656Z,100601.28
2023-05-19T16:24:11.276Z,100596.72
2023-05-19T16:26:38.604Z,100607.88
2023-05-19T16:29:06.047Z,100600.84
2023-05-19T16:31:36.313Z,100593.19
2023-05-19T16:34:03.891Z,100604.97
2023-05-19T16:36:31.984Z,100604.56
2023-05-19T16:39:01.818Z,100607.84
2023-05-19T16:41:29.125Z,100607.84
2023-05-19T16:43:56.388Z,100597.53
2023-05-19T16:46:24.152Z,100601.25
2023-05-19T16:48:51.846Z,100608.09
2023-05-19T16:51:19.199Z,100597.50
2023-05-19T16:53:47.829Z,100595.72
2023-05-19T16:56:15.150Z,100596.28
2023-05-19T16:58:42.406Z,100595.81
2023-05-19T17:01:12.088Z,100596.81
2023-05-19T17:03:39.485Z,100595.66
2023-05-19T17:06:06.808Z,100588.41
2023-05-19T17:08:34.475Z,100590.25
2023-05-19T17:11:01.915Z,100592.09
2023-05-19T17:13:33.867Z,100593.50
2023-05-19T17:16:02.584Z,100593.37
2023-05-19T17:18:31.395Z,100589.87
2023-05-19T17:21:03.905Z,100594.62
2023-05-19T17:23:32.598Z,100589.75
2023-05-19T17:26:00.551Z,100596.56
2023-05-19T17:28:30.974Z,100596.06
2023-05-19T17:30:58.934Z,100595.47
2023-05-19T17:33:26.432Z,100601.06
2023-05-19T17:35:53.769Z,100610.47
2023-05-19T17:38:23.912Z,100603.16
2023-05-19T17:40:51.189Z,100600.84
2023-05-19T17:43:18.465Z,100609.19
2023-05-19T17:45:46.039Z,100608.53
2023-05-19T17:48:13.476Z,100613.25
2023-05-19T17:50:40.851Z,100608.81
2023-05-19T17:53:08.927Z,100611.69
2023-05-19T17:55:36.553Z,100610.88
2023-05-19T17:58:04.177Z,100609.56
2023-05-19T18:00:32.154Z,100605.66
2023-05-19T18:03:01.939Z,100608.78
2023-05-19T18:05:33.417Z,100607.88
2023-05-19T18:08:05.140Z,100605.00
2023-05-19T18:10:36.607Z,100597.03
2023-05-19T18:13:05.430Z,100606.53
2023-05-19T18:15:33.069Z,100604.00
2023-05-19T18:18:02.521Z,100593.44
2023-05-19T18:20:31.212Z,100601.03
2023-05-19T18:22:58.665Z,100599.75
2023-05-19T18:25:26.385Z,100597.50
2023-05-19T18:27:55.927Z,100607.25
2023-05-19T18:30:23.654Z,100604.44
2023-05-19T18:32:51.005Z,100609.16
2023-05-19T18:35:20.852Z,100614.41
2023-05-19T18:37:48.171Z,100610.06
2023-05-19T18:40:15.447Z,100607.09
2023-05-19T18:42:43.263Z,100612.50
2023-05-19T18:45:20.298Z,100610.00
2023-05-19T18:47:48.251Z,100606.63
2023-05-19T18:50:16.718Z,100609.63
2023-05-19T18:52:44.067Z,100610.81
2023-05-19T18:55:11.662Z,100619.50
2023-05-19T18:57:38.981Z,100618.69
2023-05-19T19:00:07.033Z,100619.53
2023-05-19T19:02:34.671Z,100624.19
2023-05-19T19:05:04.136Z,100629.03
2023-05-19T19:07:31.901Z,100626.84
2023-05-19T19:09:59.516Z,100623.31
2023-05-19T19:12:26.821Z,100632.81
2023-05-19T19:14:54.656Z,100635.78
2023-05-19T19:17:22.257Z,100636.63
2023-05-19T19:19:50.024Z,100637.09
2023-05-19T19:22:17.521Z,100632.75
2023-05-19T19:24:45.647Z,100638.06
2023-05-19T19:27:13.401Z,100639.75
2023-05-19T19:29:40.830Z,100634.72
2023-05-19T19:32:08.621Z,100642.72
2023-05-19T19:34:36.063Z,100645.03
2023-05-19T19:37:04.055Z,100644.03
2023-05-19T19:39:31.724Z,100650.56
2023-05-19T19:41:59.002Z,100645.88
2023-05-19T19:44:26.335Z,100645.22
2023-05-19T19:46:54.067Z,100643.00
2023-05-19T19:49:21.523Z,100644.84
2023-05-19T19:51:49.107Z,100649.72
2023-05-19T19:54:16.740Z,100650.34
2023-05-19T19:56:57.062Z,100652.03
2023-05-19T20:06:02.466Z,100653.63
2023-05-19T20:08:29.959Z,100654.13
2023-05-19T20:10:57.149Z,100648.13
2023-05-19T20:13:24.497Z,100656.66
2023-05-19T20:15:52.138Z,100647.31
2023-05-19T20:18:19.320Z,100651.00
2023-05-19T20:20:46.666Z,100647.94
2023-05-19T20:23:16.301Z,100655.13
2023-05-19T20:25:58.524Z,100655.94
2023-05-19T20:28:30.586Z,100652.94
2023-05-19T20:30:57.973Z,100644.09
2023-05-19T20:33:25.252Z,100645.28
2023-05-19T20:35:52.721Z,100649.59
2023-05-19T20:38:19.972Z,100649.78
2023-05-19T20:40:47.847Z,100650.47
2023-05-19T20:52:42.297Z,100636.34
2023-05-19T20:58:40.661Z,100621.81
2023-05-19T21:01:08.249Z,100628.34
2023-05-19T21:03:35.777Z,100636.00
2023-05-19T21:06:03.316Z,100629.63
2023-05-19T21:08:30.941Z,100629.09
2023-05-19T21:10:58.240Z,100631.22
2023-05-19T21:13:25.499Z,100634.06
2023-05-19T21:15:53.020Z,100628.88
2023-05-19T21:18:20.366Z,100638.72
2023-05-19T21:20:47.766Z,100640.56
2023-05-19T21:23:15.793Z,100636.69
2023-05-19T21:25:45.172Z,100643.50
2023-05-19T21:28:12.843Z,100641.50
2023-05-19T21:30:40.414Z,100637.00
2023-05-19T21:33:07.836Z,100639.84
2023-05-19T21:35:35.143Z,100644.66
2023-05-19T21:38:12.116Z,100643.59
2023-05-19T21:40:49.817Z,100631.38
2023-05-19T21:43:17.445Z,100633.34
2023-05-19T21:45:45.148Z,100632.59
2023-05-19T21:48:12.420Z,100634.06
2023-05-19T21:50:40.094Z,100632.84
2023-05-19T21:53:07.345Z,100633.47
2023-05-19T21:55:34.987Z,100633.75
2023-05-19T21:58:02.963Z,100630.44
2023-05-19T22:00:30.418Z,100637.66
2023-05-19T22:02:58.067Z,100621.31
2023-05-19T22:05:25.783Z,100614.78
2023-05-19T22:07:52.932Z,100617.44
2023-05-19T22:10:20.430Z,100614.50
2023-05-19T22:12:47.758Z,100609.03
2023-05-19T22:15:15.944Z,100607.81
2023-05-19T22:17:43.848Z,100606.34
2023-05-19T22:20:11.932Z,100603.41
2023-05-19T22:22:39.159Z,100596.09
2023-05-19T22:25:07.201Z,100597.44
2023-05-19T22:27:34.479Z,100586.88
2023-05-19T22:30:01.778Z,100589.50
2023-05-19T22:32:30.466Z,100581.81
2023-05-19T22:34:57.682Z,100578.31
2023-05-19T22:37:24.943Z,100586.50
2023-05-19T22:39:52.465Z,100583.84
2023-05-19T22:42:19.750Z,100582.63
2023-05-19T22:44:46.977Z,100589.91
2023-05-19T22:47:15.090Z,100585.50
2023-05-19T22:56:35.888Z,100583.31
2023-05-19T22:59:03.426Z,100580.03
2023-05-19T23:01:30.731Z,100572.53
2023-05-19T23:03:58.045Z,100587.13
2023-05-19T23:06:25.790Z,100576.78
2023-05-19T23:09:01.143Z,100571.75
2023-05-19T23:11:28.658Z,100586.09
2023-05-19T23:13:56.057Z,100578.09
2023-05-19T23:16:23.337Z,100570.38
2023-05-19T23:18:50.987Z,100568.03
2023-05-19T23:21:18.284Z,100560.13
2023-05-19T23:23:45.615Z,100560.56
2023-05-19T23:26:16.221Z,100556.84
2023-05-19T23:28:43.681Z,100558.28
2023-05-19T23:31:10.993Z,100549.34
2023-05-19T23:33:38.655Z,100545.97
2023-05-19T23:36:10.214Z,100558.16
2023-05-19T23:38:37.867Z,100558.03
2023-05-19T23:41:05.664Z,100546.63
2023-05-19T23:43:32.991Z,100555.97
2023-05-19T23:46:00.615Z,100545.53
2023-05-19T23:48:29.273Z,100543.47
2023-05-19T23:50:57.649Z,100545.28
2023-05-19T23:53:25.202Z,100539.72
2023-05-19T23:55:52.729Z,100524.25
2023-05-19T23:58:20.006Z,100520.19
